createdAt,value
2023-01-04T12:22:39.254Z,101311.06
2023-01-04T12:25:39.688Z,101321.44
2023-01-04T12:28:09.058Z,101332.75
2023-01-04T12:30:45.031Z,101316.94
2023-01-04T12:33:42.227Z,101319.56
2023-01-04T12:36:12.645Z,101320.13
2023-01-04T12:39:38.386Z,101312.69
2023-01-04T12:42:23.997Z,101318.75
2023-01-04T12:45:18.229Z,101332.34
2023-01-04T12:48:02.037Z,101316.75
2023-01-04T12:50:31.617Z,101323.75
2023-01-04T12:55:57.385Z,101323.25
2023-01-04T13:02:23.033Z,101340.84
2023-01-04T13:05:25.738Z,101337.53
2023-01-04T13:07:48.945Z,101338.53
2023-01-04T13:10:22.834Z,101333.91
2023-01-04T13:13:10.627Z,101335.47
2023-01-04T13:15:58.119Z,101334.47
2023-01-04T13:18:48.432Z,101341.53
2023-01-04T13:21:25.811Z,101340.16
2023-01-04T13:23:57.159Z,101338.53
2023-01-04T13:26:42.312Z,101331.09
2023-01-04T13:29:18.703Z,101314.69
2023-01-04T13:31:58.103Z,101324.88
2023-01-04T13:34:31.958Z,101316.66
2023-01-04T13:37:18.573Z,101322.66
2023-01-04T13:39:50.776Z,101331.41
2023-01-04T13:42:28.598Z,101321.72
2023-01-04T13:45:38.817Z,101312.94
2023-01-04T13:48:13.858Z,101323.34
2023-01-04T13:50:46.615Z,101327.41
2023-01-04T13:53:26.064Z,101320.97
2023-01-04T13:55:57.456Z,101331.91
2023-01-04T13:58:30.084Z,101316.59
2023-01-04T14:01:02.998Z,101319.97
2023-01-04T14:03:41.532Z,101323.31
2023-01-04T14:06:18.639Z,101333.34
2023-01-04T14:08:58.776Z,101314.59
2023-01-04T14:11:44.165Z,101296.31
2023-01-04T14:14:33.508Z,101304.50
2023-01-04T14:17:18.730Z,101299.13
2023-01-04T14:19:55.846Z,101288.09
2023-01-04T14:22:55.602Z,101294.25
2023-01-04T14:25:47.771Z,101298.81
2023-01-04T14:28:21.504Z,101297.91
2023-01-04T14:30:52.806Z,101305.84
2023-01-04T14:33:25.567Z,101313.84
2023-01-04T14:36:13.423Z,101314.59
2023-01-04T14:38:46.588Z,101313.91
2023-01-04T14:41:23.547Z,101312.59
2023-01-04T14:43:55.131Z,101311.44
2023-01-04T14:46:24.870Z,101306.88
2023-01-04T14:48:53.878Z,101302.69
2023-01-04T14:51:37.666Z,101308.22
2023-01-04T14:54:07.312Z,101312.06
2023-01-04T14:56:36.522Z,101312.53
2023-01-04T14:59:05.392Z,101308.47
2023-01-04T15:01:35.605Z,101313.84
2023-01-04T15:04:04.739Z,101315.22
2023-01-04T15:06:36.868Z,101321.75
2023-01-04T15:09:06.283Z,101318.38
2023-01-04T15:11:35.021Z,101326.59
2023-01-04T15:14:03.692Z,101339.31
2023-01-04T15:16:32.485Z,101337.97
2023-01-04T15:19:01.204Z,101331.25
2023-01-04T15:21:32.821Z,101335.63
2023-01-04T15:24:05.195Z,101333.09
2023-01-04T15:26:34.131Z,101332.25
2023-01-04T15:29:03.722Z,101344.97
2023-01-04T15:31:38.608Z,101342.59
2023-01-04T15:34:09.632Z,101343.28
2023-01-04T15:36:39.850Z,101329.19
2023-01-04T15:39:13.578Z,101329.81
2023-01-04T15:41:55.759Z,101329.00
2023-01-04T15:44:24.465Z,101317.09
2023-01-04T15:46:54.853Z,101312.06
2023-01-04T15:49:23.712Z,101295.44
2023-01-04T15:51:52.507Z,101291.94
2023-01-04T15:54:25.950Z,101297.44
2023-01-04T15:56:54.815Z,101302.50
2023-01-04T15:59:23.658Z,101298.31
2023-01-04T16:01:52.610Z,101291.25
2023-01-04T16:04:21.559Z,101298.63
2023-01-04T16:06:50.377Z,101293.94
2023-01-04T16:09:19.044Z,101304.97
2023-01-04T16:12:02.823Z,101302.28
2023-01-04T16:14:31.595Z,101323.50
2023-01-04T16:17:00.487Z,101326.03
2023-01-04T16:19:31.698Z,101330.72
2023-01-04T16:22:00.707Z,101330.38
2023-01-04T16:25:08.648Z,101337.75
2023-01-04T16:27:20.659Z,101339.91
2023-01-04T16:29:51.405Z,101341.75
2023-01-04T16:32:20.928Z,101337.69
2023-01-04T16:34:51.657Z,101342.28
2023-01-04T16:37:21.051Z,101338.28
2023-01-04T16:40:08.058Z,101333.06
2023-01-04T16:42:40.234Z,101328.97
2023-01-04T16:45:11.027Z,101317.94
2023-01-04T16:47:42.114Z,101328.34
2023-01-04T16:50:12.178Z,101329.03
2023-01-04T16:52:41.270Z,101325.97
2023-01-04T16:55:11.925Z,101329.66
2023-01-04T16:57:42.687Z,101336.84
2023-01-04T17:00:17.044Z,101333.81
2023-01-04T17:02:45.754Z,101335.25
2023-01-04T17:05:14.795Z,101356.00
2023-01-04T17:07:43.481Z,101350.56
2023-01-04T17:10:12.216Z,101349.44
2023-01-04T17:12:47.948Z,101356.69
2023-01-04T17:18:07.294Z,101363.50
2023-01-04T17:20:37.308Z,101359.50
2023-01-04T17:23:06.103Z,101368.09
2023-01-04T17:25:35.079Z,101369.63
2023-01-04T17:28:06.332Z,101377.78
2023-01-04T17:30:35.245Z,101371.09
2023-01-04T17:33:04.081Z,101362.56
2023-01-04T17:35:33.598Z,101359.50
2023-01-04T17:38:02.408Z,101362.19
2023-01-04T17:40:31.131Z,101373.06
2023-01-04T17:43:01.576Z,101390.53
2023-01-04T17:45:33.385Z,101391.66
2023-01-04T17:48:02.303Z,101402.03
2023-01-04T17:50:31.085Z,101393.13
2023-01-04T17:53:00.443Z,101407.78
2023-01-04T17:55:29.278Z,101406.41
2023-01-04T17:57:58.618Z,101415.53
2023-01-04T18:00:27.428Z,101417.22
2023-01-04T18:02:58.177Z,101405.50
2023-01-04T18:05:26.932Z,101433.59
2023-01-04T18:07:55.705Z,101424.47
2023-01-04T18:10:40.929Z,101409.19
2023-01-04T18:13:13.403Z,101414.16
2023-01-04T18:15:54.957Z,101424.56
2023-01-04T18:18:34.113Z,101432.06
2023-01-04T18:21:27.167Z,101428.81
2023-01-04T18:27:19.811Z,101419.81
2023-01-04T18:29:35.420Z,101409.50
2023-01-04T18:32:04.177Z,101414.03
2023-01-04T18:34:35.243Z,101409.84
2023-01-04T18:37:03.982Z,101426.75
2023-01-04T18:39:32.727Z,101430.13
2023-01-04T18:42:01.429Z,101412.53
2023-01-04T18:44:33.549Z,101419.25
2023-01-04T18:47:03.859Z,101419.63
2023-01-04T18:49:38.471Z,101409.84
2023-01-04T18:52:07.815Z,101405.53
2023-01-04T18:54:36.793Z,101422.91
2023-01-04T18:57:08.800Z,101417.25
2023-01-04T18:59:37.702Z,101418.72
2023-01-04T19:02:06.643Z,101420.38
2023-01-04T19:04:42.071Z,101424.22
2023-01-04T19:07:10.744Z,101404.03
2023-01-04T19:09:42.021Z,101419.41
2023-01-04T19:12:13.638Z,101412.81
2023-01-04T19:14:42.883Z,101427.91
2023-01-04T19:17:12.462Z,101417.94
2023-01-04T19:19:43.190Z,101431.50
2023-01-04T19:22:15.022Z,101415.16
2023-01-04T19:24:43.892Z,101415.44
2023-01-04T19:27:12.666Z,101410.63
2023-01-04T19:29:46.691Z,101424.72
2023-01-04T19:32:18.587Z,101419.75
2023-01-04T19:34:49.843Z,101412.66
2023-01-04T19:37:18.730Z,101415.44
2023-01-04T19:39:51.907Z,101414.22
2023-01-04T19:42:23.030Z,101430.31
2023-01-04T19:45:00.752Z,101435.56
2023-01-04T19:47:29.464Z,101436.69
2023-01-04T19:50:00.170Z,101446.59
2023-01-04T19:52:33.451Z,101453.22
2023-01-04T19:55:02.430Z,101433.75
2023-01-04T19:57:31.271Z,101443.00
2023-01-04T20:00:00.105Z,101448.97
2023-01-04T20:02:30.809Z,101453.50
2023-01-04T20:05:01.791Z,101456.00
2023-01-04T20:07:30.495Z,101463.47
2023-01-04T20:09:59.196Z,101472.47
2023-01-04T20:12:27.882Z,101480.28
2023-01-04T20:14:56.669Z,101472.66
2023-01-04T20:17:25.450Z,101482.22
2023-01-04T20:19:54.313Z,101484.47
2023-01-04T20:22:25.147Z,101495.63
2023-01-04T20:24:54.012Z,101497.75
2023-01-04T20:27:22.686Z,101489.84
2023-01-04T20:29:53.869Z,101496.34
2023-01-04T20:32:22.656Z,101495.53
2023-01-04T20:34:51.499Z,101494.22
2023-01-04T20:37:20.465Z,101481.69
2023-01-04T20:39:52.759Z,101494.06
2023-01-04T20:42:34.654Z,101501.25
2023-01-04T20:45:03.444Z,101484.38
2023-01-04T20:47:32.337Z,101507.59
2023-01-04T20:50:01.168Z,101510.56
2023-01-04T20:52:29.959Z,101496.34
2023-01-04T20:55:00.734Z,101492.53
2023-01-04T20:57:29.544Z,101504.22
2023-01-04T20:59:58.319Z,101505.81
2023-01-04T21:02:27.185Z,101503.56
2023-01-04T21:04:56.118Z,101515.19
2023-01-04T21:07:24.857Z,101517.50
2023-01-04T21:09:53.604Z,101514.41
2023-01-04T21:12:24.241Z,101517.38
2023-01-04T21:14:53.623Z,101533.28
2023-01-04T21:17:22.311Z,101531.19
2023-01-04T21:19:51.014Z,101529.63
2023-01-04T21:22:21.964Z,101539.50
2023-01-04T21:24:50.767Z,101532.03
2023-01-04T21:27:19.424Z,101534.09
2023-01-04T21:29:59.888Z,101538.53
2023-01-04T21:32:39.403Z,101546.03
2023-01-04T21:35:14.130Z,101538.44
2023-01-04T21:37:52.994Z,101557.91
2023-01-04T21:40:21.768Z,101550.00
2023-01-04T21:42:50.661Z,101554.00
2023-01-04T21:45:21.807Z,101559.34
2023-01-04T21:47:50.547Z,101557.34
2023-01-04T21:50:30.045Z,101567.94
2023-01-04T21:52:59.208Z,101565.13
2023-01-04T21:55:33.952Z,101570.66
2023-01-04T21:58:09.074Z,101563.59
2023-01-04T22:00:41.059Z,101573.50
2023-01-04T22:03:15.412Z,101568.44
2023-01-04T22:05:44.117Z,101575.63
2023-01-04T22:08:12.936Z,101585.91
2023-01-04T22:10:57.476Z,101576.63
2023-01-04T22:13:27.702Z,101577.75
2023-01-04T22:15:58.445Z,101569.31
2023-01-04T22:18:27.305Z,101559.19
2023-01-04T22:21:04.441Z,101571.03
2023-01-04T22:23:33.789Z,101571.56
2023-01-04T22:26:02.771Z,101568.75
2023-01-04T22:28:36.688Z,101572.28
2023-01-04T22:31:10.238Z,101567.47
2023-01-04T22:33:40.368Z,101576.09
2023-01-04T22:36:17.411Z,101574.09
2023-01-04T22:38:51.112Z,101569.16
2023-01-04T22:41:21.714Z,101572.69
2023-01-04T22:43:56.496Z,101587.06
2023-01-04T22:46:28.757Z,101585.38
2023-01-04T22:48:58.138Z,101580.31
2023-01-04T22:51:28.445Z,101575.50
2023-01-04T22:53:58.552Z,101582.81
2023-01-04T22:56:28.512Z,101591.28
2023-01-04T22:58:59.423Z,101589.03
2023-01-04T23:01:33.487Z,101593.25
2023-01-04T23:04:03.457Z,101599.72
2023-01-04T23:06:33.677Z,101602.25
2023-01-04T23:09:05.822Z,101601.44
2023-01-04T23:11:37.346Z,101609.88
2023-01-04T23:14:09.440Z,101619.00
2023-01-04T23:16:40.423Z,101611.69
2023-01-04T23:19:09.632Z,101610.88
2023-01-04T23:21:38.504Z,101598.88
2023-01-04T23:24:08.647Z,101609.03
2023-01-04T23:26:37.359Z,101602.13
2023-01-04T23:29:06.289Z,101616.75
2023-01-04T23:31:35.873Z,101612.66
2023-01-04T23:34:08.394Z,101622.97
2023-01-04T23:36:41.893Z,101625.34
2023-01-04T23:39:14.167Z,101637.72
2023-01-04T23:41:46.860Z,101623.66
2023-01-04T23:44:19.297Z,101622.47
2023-01-04T23:46:51.728Z,101626.88
2023-01-04T23:49:23.274Z,101618.28
2023-01-04T23:51:52.255Z,101614.88
2023-01-04T23:54:21.912Z,101612.34
2023-01-04T23:56:50.646Z,101613.19
2023-01-04T23:59:20.218Z,101625.13
